Time;durP1;ratioP1;P1;durP2;ratioP2;P2;SDS_P1;SDS_P2;PMS_P1;PMS_P2;Temp;Humidity;BMP_temperature;BMP_pressure;BME280_temperature;BME280_humidity;BME280_pressure;Samples;Min_cycle;Max_cycle;Signal;HPM_P1;HPM_P2
2022/09/18 00:01:11;;;;;;;8.57;7.70;;;;;;;19.57;100.00;99078.98;1755275;81;20951;-58
2022/09/18 00:03:40;;;;;;;9.10;8.08;;;;;;;19.60;100.00;99073.69;1755525;81;21513;-57
2022/09/18 00:06:12;;;;;;;9.97;8.97;;;;;;;19.67;100.00;99080.30;1755565;81;20936;-58
2022/09/18 00:08:40;;;;;;;10.63;9.20;;;;;;;19.66;100.00;99079.23;1755220;81;21242;-57
2022/09/18 00:11:08;;;;;;;10.20;8.93;;;;;;;19.67;100.00;99067.61;1754704;81;20987;-63
2022/09/18 00:13:36;;;;;;;9.87;8.87;;;;;;;19.62;100.00;99062.33;1755936;81;21522;-58
2022/09/18 00:16:06;;;;;;;10.23;8.57;;;;;;;19.58;100.00;99058.08;1755754;81;21793;-59
2022/09/18 00:18:33;;;;;;;10.30;8.97;;;;;;;19.60;100.00;99056.50;1755437;81;20972;-58
2022/09/18 00:21:12;;;;;;;10.97;8.90;;;;;;;19.64;100.00;99053.61;1755926;81;21147;-65
2022/09/18 00:23:39;;;;;;;10.40;9.30;;;;;;;19.72;100.00;99041.67;1755965;81;21819;-57
2022/09/18 00:26:07;;;;;;;11.20;9.10;;;;;;;19.85;100.00;99043.19;1755609;81;21019;-58
2022/09/18 00:28:35;;;;;;;9.97;8.97;;;;;;;19.89;100.00;99031.53;1756233;81;21039;-57
2022/09/18 00:31:18;;;;;;;12.50;9.30;;;;;;;19.87;100.00;99033.12;1755388;81;20991;-65
2022/09/18 00:33:45;;;;;;;8.83;7.93;;;;;;;19.79;100.00;99037.66;1755682;81;21885;-56
2022/09/18 00:36:15;;;;;;;12.37;9.27;;;;;;;19.75;100.00;99045.09;1755969;81;20988;-57
2022/09/18 00:38:42;;;;;;;12.33;9.50;;;;;;;19.75;100.00;99045.09;1756070;81;21062;-57
2022/09/18 00:41:31;;;;;;;10.73;9.60;;;;;;;19.60;100.00;99044.08;1754908;81;20992;-58
2022/09/18 00:44:29;;;;;;;10.30;9.20;;;;;;;19.52;100.00;99045.97;1755910;81;21030;-58
2022/09/18 00:47:07;;;;;;;9.43;8.53;;;;;;;19.42;100.00;99040.72;1755873;81;22013;-57
2022/09/18 00:49:37;;;;;;;8.87;7.97;;;;;;;19.35;100.00;99047.60;1756061;81;21004;-57
2022/09/18 00:52:04;;;;;;;10.63;9.17;;;;;;;19.28;100.00;99029.13;1755531;81;21442;-65
2022/09/18 00:54:39;;;;;;;9.73;8.73;;;;;;;19.26;100.00;99031.27;1755401;81;21031;-57
2022/09/18 00:57:16;;;;;;;9.07;8.13;;;;;;;19.22;100.00;99022.31;1755374;81;21070;-58
2022/09/18 00:59:45;;;;;;;11.77;9.23;;;;;;;19.20;100.00;99015.95;1755619;81;21908;-58
2022/09/18 01:02:12;;;;;;;10.73;9.50;;;;;;;19.22;100.00;99010.42;1754693;81;21535;-59
2022/09/18 01:04:40;;;;;;;9.37;8.37;;;;;;;19.29;100.00;99006.96;1755795;79;21364;-59
2022/09/18 01:07:35;;;;;;;10.97;9.77;;;;;;;19.23;100.00;99008.03;1755982;81;20988;-59
2022/09/18 01:10:11;;;;;;;11.17;9.00;;;;;;;19.25;100.00;98998.78;1756423;81;21926;-58
2022/09/18 01:13:01;;;;;;;11.17;9.13;;;;;;;19.19;100.00;99003.28;1756048;81;21853;-60
2022/09/18 01:15:48;;;;;;;9.83;8.83;;;;;;;19.17;100.00;98996.17;1755156;81;20987;-59
2022/09/18 01:18:27;;;;;;;12.80;10.80;;;;;;;19.12;100.00;98992.20;1731162;81;21102;-58
2022/09/18 01:21:16;;;;;;;11.57;10.10;;;;;;;19.14;100.00;98995.38;1742295;81;21532;-64
2022/09/18 01:23:49;;;;;;;10.53;9.40;;;;;;;19.16;100.00;98990.60;1755671;81;21595;-58
2022/09/18 01:26:29;;;;;;;11.30;9.50;;;;;;;19.12;100.00;98989.56;1755610;81;21287;-58
2022/09/18 01:29:19;;;;;;;11.83;10.43;;;;;;;19.12;100.00;98980.32;1754196;81;21487;-58
2022/09/18 01:32:21;;;;;;;12.10;10.80;;;;;;;19.20;100.00;98985.57;1756052;81;21035;-59
2022/09/18 01:35:16;;;;;;;12.10;10.37;;;;;;;19.20;100.00;98979.75;1755730;81;20959;-58
2022/09/18 01:38:01;;;;;;;12.70;10.03;;;;;;;19.28;100.00;98976.30;1755246;81;21059;-58
2022/09/18 01:40:35;;;;;;;11.50;10.30;;;;;;;19.30;100.00;98974.97;1755179;81;21243;-58
2022/09/18 01:43:05;;;;;;;11.20;9.70;;;;;;;19.27;100.00;98976.04;1754646;81;21022;-59
2022/09/18 01:45:38;;;;;;;12.93;10.70;;;;;;;19.27;100.00;98974.19;1754859;81;20979;-59
2022/09/18 01:48:07;;;;;;;12.50;10.90;;;;;;;19.25;100.00;98961.80;1755268;81;21469;-59
2022/09/18 01:50:41;;;;;;;12.60;10.72;;;;;;;19.29;100.00;98960.72;1754949;81;21015;-58
2022/09/18 01:53:22;;;;;;;13.37;10.93;;;;;;;19.29;100.00;98954.12;1754773;81;21676;-64
2022/09/18 01:55:56;;;;;;;14.80;11.50;;;;;;;19.25;100.00;98953.87;1755220;81;20968;-58
2022/09/18 01:58:23;;;;;;;13.87;11.53;;;;;;;19.23;100.00;98940.13;1756043;81;21043;-58
2022/09/18 02:00:54;;;;;;;13.47;10.50;;;;;;;19.22;100.00;98940.41;1754717;81;20884;-61
2022/09/18 02:03:31;;;;;;;15.20;11.47;;;;;;;19.17;100.00;98926.17;1755165;81;21427;-58
2022/09/18 02:06:10;;;;;;;13.73;10.93;;;;;;;19.19;100.00;98929.31;1755914;80;21222;-59
2022/09/18 02:08:44;;;;;;;14.37;11.93;;;;;;;19.18;100.00;98936.20;1731741;81;20931;-68
2022/09/18 02:11:13;;;;;;;14.37;11.67;;;;;;;19.15;100.00;98933.56;1755885;81;21634;-58
2022/09/18 02:14:04;;;;;;;15.57;11.23;;;;;;;19.23;100.00;98934.05;1756197;81;20927;-58
2022/09/18 02:16:38;;;;;;;13.97;10.87;;;;;;;19.24;100.00;98934.31;1752439;81;21363;-59
2022/09/18 02:19:27;;;;;;;12.67;10.47;;;;;;;19.32;100.00;98928.45;1755037;80;21263;-58
2022/09/18 02:21:55;;;;;;;15.37;10.80;;;;;;;19.32;100.00;98924.48;1755119;80;20988;-64
2022/09/18 02:24:27;;;;;;;14.20;11.67;;;;;;;19.33;100.00;98913.66;1755464;81;21490;-57
2022/09/18 02:26:54;;;;;;;12.43;11.12;;;;;;;19.32;100.00;98908.12;1755518;81;27223;-56
2022/09/18 02:29:22;;;;;;;11.70;10.57;;;;;;;19.32;100.00;98898.06;1755513;81;20941;-64
2022/09/18 02:31:50;;;;;;;14.47;10.83;;;;;;;19.31;100.00;98905.74;1754609;81;21291;-64
2022/09/18 02:34:17;;;;;;;12.30;10.90;;;;;;;19.24;100.00;98896.00;1754499;81;20939;-58
2022/09/18 02:37:08;;;;;;;12.27;10.90;;;;;;;19.27;100.00;98900.75;1755200;81;21241;-57
2022/09/18 02:39:44;;;;;;;12.85;11.15;;;;;;;19.27;100.00;98896.25;1755549;81;21128;-65
2022/09/18 02:42:35;;;;;;;12.63;11.33;;;;;;;19.30;100.00;98897.56;1755123;81;21105;-58
2022/09/18 02:45:25;;;;;;;12.63;11.03;;;;;;;19.62;100.00;98897.92;1755003;81;21303;-63
2022/09/18 02:48:32;;;;;;;13.40;11.20;;;;;;;19.62;100.00;98891.82;1755146;81;20994;-56
2022/09/18 02:51:17;;;;;;;12.30;10.80;;;;;;;19.35;100.00;98891.70;1755270;81;21412;-57
2022/09/18 02:53:51;;;;;;;14.27;11.83;;;;;;;19.43;100.00;98894.30;1753352;81;21011;-58
2022/09/18 02:56:37;;;;;;;11.90;10.57;;;;;;;19.50;100.00;98897.42;1722291;81;20956;-57
2022/09/18 02:59:13;;;;;;;14.20;11.23;;;;;;;19.65;100.00;98898.67;1747008;81;22188;-65
2022/09/18 03:01:42;;;;;;;12.80;11.40;;;;;;;19.65;100.00;98890.74;1754662;81;20998;-66
2022/09/18 03:04:13;;;;;;;12.37;10.20;;;;;;;19.78;100.00;98885.38;1745969;80;21338;-57
2022/09/18 03:06:49;;;;;;;12.13;10.90;;;;;;;19.78;100.00;98885.91;1740035;81;21035;-66
2022/09/18 03:09:16;;;;;;;12.13;10.93;;;;;;;19.79;100.00;98872.41;1744778;82;20916;-58
2022/09/18 03:11:44;;;;;;;12.57;11.37;;;;;;;19.78;100.00;98863.44;1745497;82;21386;-57
2022/09/18 03:14:12;;;;;;;11.97;10.73;;;;;;;19.79;100.00;98860.50;1745272;82;21340;-58
2022/09/18 03:16:41;;;;;;;15.37;11.53;;;;;;;19.83;100.00;98862.06;1744889;81;20992;-56
2022/09/18 03:19:10;;;;;;;12.23;10.60;;;;;;;19.58;100.00;98858.51;1745031;82;22358;-67
2022/09/18 03:21:38;;;;;;;12.13;10.87;;;;;;;19.85;100.00;98855.95;1744899;82;21962;-57
2022/09/18 03:24:08;;;;;;;11.33;10.05;;;;;;;20.00;100.00;98855.02;1816826;78;21285;-57
2022/09/18 03:26:38;;;;;;;14.30;11.93;;;;;;;20.09;100.00;98847.53;1817155;78;20847;-57
2022/09/18 03:29:07;;;;;;;12.63;10.27;;;;;;;20.09;100.00;98840.92;1817083;78;20975;-58
2022/09/18 03:31:35;;;;;;;13.00;11.60;;;;;;;19.80;100.00;98838.27;1815648;78;21499;-57
2022/09/18 03:34:03;;;;;;;12.63;10.27;;;;;;;19.88;100.00;98836.88;1782924;78;21472;-57
2022/09/18 03:36:30;;;;;;;14.37;11.37;;;;;;;20.02;100.00;98843.10;1816402;78;21025;-57
2022/09/18 03:38:58;;;;;;;11.20;10.10;;;;;;;19.94;100.00;98858.27;1816307;78;21025;-57
2022/09/18 03:41:25;;;;;;;12.33;9.90;;;;;;;19.89;100.00;98874.19;1815153;78;20931;-65
2022/09/18 03:43:53;;;;;;;11.33;9.00;;;;;;;20.24;100.00;98869.08;1816405;78;21500;-58
2022/09/18 03:46:22;;;;;;;11.83;10.63;;;;;;;20.43;100.00;98841.36;1816837;78;20890;-58
2022/09/18 03:48:51;;;;;;;10.57;9.27;;;;;;;20.46;100.00;98838.16;1816469;78;21852;-57
2022/09/18 03:51:19;;;;;;;10.57;9.47;;;;;;;20.53;100.00;98837.31;1816431;78;20859;-63
2022/09/18 03:53:47;;;;;;;12.93;10.40;;;;;;;20.60;100.00;98823.70;1816342;78;21440;-57
2022/09/18 03:56:32;;;;;;;12.03;10.30;;;;;;;20.70;100.00;98822.80;1815971;78;21052;-57
2022/09/18 03:59:16;;;;;;;11.10;9.30;;;;;;;20.66;100.00;98819.94;1811727;78;20982;-59
2022/09/18 04:02:05;;;;;;;11.40;9.43;;;;;;;20.74;100.00;98818.52;1814184;78;21260;-57
2022/09/18 04:04:36;;;;;;;11.43;10.33;;;;;;;20.71;100.00;98815.11;1811059;78;21080;-57
2022/09/18 04:07:12;;;;;;;12.20;10.37;;;;;;;20.86;100.00;98809.61;1812522;78;21472;-58
2022/09/18 04:09:59;;;;;;;10.93;9.50;;;;;;;20.87;100.00;98802.72;1816287;78;21009;-57
2022/09/18 04:12:27;;;;;;;11.37;9.43;;;;;;;20.94;100.00;98806.85;1816042;78;21362;-66
2022/09/18 04:14:56;;;;;;;11.73;9.63;;;;;;;20.99;100.00;98796.20;1813095;78;22258;-57
2022/09/18 04:17:24;;;;;;;10.77;9.20;;;;;;;21.07;100.00;98798.98;1815133;78;21028;-57
2022/09/18 04:19:51;;;;;;;11.07;9.47;;;;;;;21.11;100.00;98796.55;1815588;78;20943;-57
2022/09/18 04:22:18;;;;;;;11.43;10.00;;;;;;;21.09;100.00;98783.57;1815874;78;20985;-57
2022/09/18 04:24:46;;;;;;;10.13;9.03;;;;;;;20.94;100.00;98783.80;1814896;78;20982;-57
2022/09/18 04:27:13;;;;;;;13.07;9.40;;;;;;;20.89;100.00;98784.66;1815430;78;21193;-58
2022/09/18 04:29:41;;;;;;;12.27;8.77;;;;;;;20.91;100.00;98791.02;1815868;78;21021;-58
2022/09/18 04:32:08;;;;;;;11.43;9.73;;;;;;;21.04;100.00;98778.36;1815976;77;20918;-58
2022/09/18 04:34:36;;;;;;;11.40;9.30;;;;;;;20.96;100.00;98779.55;1815934;78;20967;-69
2022/09/18 04:37:03;;;;;;;9.30;8.23;;;;;;;20.98;100.00;98785.34;1815187;78;21064;-57
2022/09/18 04:39:32;;;;;;;12.03;9.03;;;;;;;21.12;100.00;98785.65;1815169;78;21220;-58
2022/09/18 04:42:01;;;;;;;11.07;9.90;;;;;;;21.32;100.00;98760.69;1815881;78;20978;-57
2022/09/18 04:44:27;;;;;;;13.07;9.83;;;;;;;21.35;100.00;98738.16;1815789;78;20938;-59
2022/09/18 04:46:55;;;;;;;13.30;10.00;;;;;;;21.40;100.00;98708.90;1815302;78;20970;-59
2022/09/18 04:49:22;;;;;;;10.63;9.50;;;;;;;21.35;100.00;98691.23;1814331;78;20994;-58
2022/09/18 04:51:49;;;;;;;11.13;9.57;;;;;;;21.44;100.00;98704.61;1815846;78;22082;-57
2022/09/18 04:54:16;;;;;;;9.93;8.73;;;;;;;21.47;100.00;98725.22;1815645;78;20860;-57
2022/09/18 04:56:44;;;;;;;10.83;8.33;;;;;;;21.44;100.00;98735.10;1816125;78;20970;-58
2022/09/18 04:59:12;;;;;;;9.53;8.27;;;;;;;21.48;100.00;98746.69;1814494;78;21033;-63
2022/09/18 05:01:41;;;;;;;8.80;7.90;;;;;;;21.45;100.00;98748.59;1814492;78;21073;-62
2022/09/18 05:04:11;;;;;;;10.32;8.68;;;;;;;21.50;100.00;98737.89;1815888;78;21971;-58
2022/09/18 05:06:44;;;;;;;9.77;8.77;;;;;;;21.53;100.00;98755.88;1813637;78;20958;-59
2022/09/18 05:09:11;;;;;;;13.20;9.57;;;;;;;21.65;100.00;98749.31;1815638;78;20975;-58
2022/09/18 05:11:39;;;;;;;9.83;8.83;;;;;;;21.74;100.00;98732.42;1815533;78;21017;-67
2022/09/18 05:14:06;;;;;;;9.53;8.10;;;;;;;21.78;100.00;98732.62;1816030;78;20973;-58
2022/09/18 05:16:35;;;;;;;9.33;8.17;;;;;;;21.74;100.00;98742.24;1816027;78;21307;-58
2022/09/18 05:19:13;;;;;;;13.77;8.90;;;;;;;21.95;100.00;98746.09;1812855;78;21543;-58
2022/09/18 05:21:40;;;;;;;11.83;9.03;;;;;;;22.05;100.00;98731.31;1814876;78;20970;-60
2022/09/18 05:24:07;;;;;;;11.33;9.63;;;;;;;22.22;100.00;98721.98;1815185;78;21398;-59
2022/09/18 05:26:34;;;;;;;10.80;8.63;;;;;;;22.18;100.00;98709.84;1815952;78;20899;-57
2022/09/18 05:29:02;;;;;;;11.07;9.27;;;;;;;22.33;100.00;98715.38;1813818;78;21130;-58
2022/09/18 05:31:29;;;;;;;11.20;7.93;;;;;;;22.50;100.00;98698.30;1815571;78;21264;-57
2022/09/18 05:33:58;;;;;;;9.43;7.87;;;;;;;22.65;100.00;98698.47;1814924;78;21014;-59
2022/09/18 05:36:25;;;;;;;11.77;8.87;;;;;;;22.76;100.00;98709.66;1815363;78;21778;-57
2022/09/18 05:38:52;;;;;;;10.00;8.17;;;;;;;22.89;100.00;98696.88;1815121;78;21016;-72
2022/09/18 05:41:20;;;;;;;10.33;7.93;;;;;;;23.13;100.00;98699.78;1814682;78;22359;-58
2022/09/18 05:43:47;;;;;;;9.07;7.90;;;;;;;23.33;100.00;98708.57;1814853;78;21240;-58
2022/09/18 05:46:16;;;;;;;10.10;7.93;;;;;;;23.63;100.00;98715.52;1814289;78;33503;-63
2022/09/18 05:48:48;;;;;;;11.80;8.40;;;;;;;23.87;100.00;98723.17;1814834;78;21024;-58
2022/09/18 05:51:15;;;;;;;9.40;7.63;;;;;;;24.03;100.00;98764.24;1815498;78;20961;-61
2022/09/18 05:53:47;;;;;;;12.07;8.30;;;;;;;23.75;100.00;98759.13;1815686;78;21134;-59
2022/09/18 05:56:17;;;;;;;9.47;8.17;;;;;;;23.64;100.00;98756.47;1813994;78;20910;-58
2022/09/18 05:58:44;;;;;;;9.37;8.23;;;;;;;23.61;100.00;98761.61;1816032;77;21083;-58
2022/09/18 06:01:13;;;;;;;13.57;7.50;;;;;;;23.64;100.00;98752.99;1814427;78;20981;-59
2022/09/18 06:03:44;;;;;;;9.97;7.87;;;;;;;23.54;100.00;98760.70;1808887;78;21010;-59
2022/09/18 06:06:14;;;;;;;13.53;7.60;;;;;;;23.46;100.00;98754.80;1815120;78;21216;-65
2022/09/18 06:08:41;;;;;;;10.70;7.83;;;;;;;23.35;100.00;98762.24;1815513;78;21237;-59
2022/09/18 06:11:08;;;;;;;10.63;8.10;;;;;;;23.36;100.00;98765.13;1815104;78;20902;-58
2022/09/18 06:13:36;;;;;;;12.40;8.50;;;;;;;23.53;100.00;98795.83;1815169;78;21208;-59
2022/09/18 06:16:03;;;;;;;8.63;7.20;;;;;;;23.67;100.00;98824.25;1815517;78;21496;-61
2022/09/18 06:18:33;;;;;;;11.30;6.67;;;;;;;23.75;100.00;98855.44;1814375;78;21278;-58
2022/09/18 06:21:01;;;;;;;10.30;7.33;;;;;;;23.73;100.00;98878.91;1813938;78;21262;-62
2022/09/18 06:23:29;;;;;;;8.63;7.60;;;;;;;23.54;100.00;98853.25;1815926;78;21285;-58
2022/09/18 06:26:03;;;;;;;14.07;7.80;;;;;;;23.83;100.00;98829.45;1813770;78;20939;-73
2022/09/18 06:28:33;;;;;;;9.73;7.22;;;;;;;24.40;100.00;98792.81;1781885;78;20890;-59
2022/09/18 06:31:03;;;;;;;7.90;7.10;;;;;;;24.86;100.00;98768.25;1815308;78;22505;-60
2022/09/18 06:33:34;;;;;;;8.67;7.23;;;;;;;25.24;100.00;98759.08;1815846;78;21065;-59
2022/09/18 06:36:05;;;;;;;9.87;7.00;;;;;;;25.53;100.00;98753.58;1816104;78;20946;-59
2022/09/18 06:38:32;;;;;;;10.87;8.07;;;;;;;25.79;100.00;98739.41;1813786;78;21539;-59
2022/09/18 06:40:59;;;;;;;10.55;7.53;;;;;;;25.89;100.00;98770.53;1815433;78;20994;-60
2022/09/18 06:43:31;;;;;;;9.78;7.58;;;;;;;25.95;100.00;98798.63;1812904;78;21130;-60
2022/09/18 06:46:13;;;;;;;10.55;9.43;;;;;;;25.91;100.00;98768.34;1813251;78;20923;-59
2022/09/18 06:48:42;;;;;;;10.40;8.30;;;;;;;25.62;100.00;98818.40;1814710;78;20951;-59
2022/09/18 06:51:09;;;;;;;12.60;7.93;;;;;;;25.23;100.00;98706.84;1815017;77;21050;-60
2022/09/18 06:53:38;;;;;;;10.83;6.77;;;;;;;24.63;100.00;98678.92;1811290;78;20966;-59
2022/09/18 06:56:05;;;;;;;9.33;7.70;;;;;;;23.75;100.00;98701.93;1815336;78;21137;-64
2022/09/18 06:58:35;;;;;;;8.87;6.77;;;;;;;23.10;100.00;98756.98;1815418;78;21004;-58
2022/09/18 07:01:02;;;;;;;11.50;7.03;;;;;;;22.66;100.00;98742.56;1816304;78;20963;-58
2022/09/18 07:03:31;;;;;;;8.30;5.97;;;;;;;22.37;100.00;98774.77;1814390;78;21061;-59
2022/09/18 07:06:17;;;;;;;9.77;6.30;;;;;;;22.22;100.00;98791.78;1817650;78;21037;-58
2022/09/18 07:08:46;;;;;;;9.60;5.93;;;;;;;22.07;100.00;98754.89;1821254;77;21478;-57
2022/09/18 07:11:15;;;;;;;8.93;5.77;;;;;;;22.03;100.00;98707.48;1820394;78;20895;-58
2022/09/18 07:13:44;;;;;;;8.67;5.77;;;;;;;21.99;100.00;98715.78;1820530;78;20977;-58
2022/09/18 07:16:11;;;;;;;7.70;4.77;;;;;;;21.99;100.00;98729.83;1819697;78;21299;-58
2022/09/18 07:18:40;;;;;;;8.23;5.90;;;;;;;21.92;100.00;98709.54;1820975;78;21012;-57
2022/09/18 07:21:10;;;;;;;9.87;6.17;;;;;;;21.99;100.00;98709.16;1789695;78;21186;-58
2022/09/18 07:23:39;;;;;;;10.43;5.57;;;;;;;22.13;100.00;98694.55;1822057;78;21497;-61
2022/09/18 07:26:06;;;;;;;8.93;5.67;;;;;;;22.32;100.00;98679.31;1789069;78;21423;-64
2022/09/18 07:28:34;;;;;;;8.53;4.70;;;;;;;22.56;100.00;98681.14;1822010;78;21877;-58
2022/09/18 07:31:04;;;;;;;6.50;4.47;;;;;;;22.80;100.00;98668.11;1820528;78;21038;-57
2022/09/18 07:33:31;;;;;;;8.80;5.20;;;;;;;23.13;100.00;98671.33;1776936;79;21246;-58
2022/09/18 07:36:00;;;;;;;7.30;4.43;;;;;;;23.41;100.00;98673.28;1776639;80;21042;-64
2022/09/18 07:38:28;;;;;;;7.50;4.90;;;;;;;23.61;100.00;98679.16;1714260;82;21041;-60
2022/09/18 07:41:02;;;;;;;11.37;5.03;;;;;;;23.91;100.00;98682.33;1750412;81;21471;-59
2022/09/18 07:43:30;;;;;;;9.67;5.00;;;;;;;24.07;100.00;98674.69;1763578;81;21720;-61
2022/09/18 07:45:58;;;;;;;6.37;4.80;;;;;;;24.03;100.00;98683.06;1763016;81;21666;-61
2022/09/18 07:48:28;;;;;;;9.07;5.57;;;;;;;24.18;100.00;98712.45;1763667;81;21355;-60
2022/09/18 07:50:57;;;;;;;10.47;5.00;;;;;;;24.30;100.00;98704.63;1763898;81;21117;-59
2022/09/18 07:53:25;;;;;;;7.00;4.20;;;;;;;24.38;100.00;98699.86;1763844;81;21505;-58
2022/09/18 07:55:56;;;;;;;9.80;4.90;;;;;;;24.35;100.00;98688.49;1763397;81;21034;-67
2022/09/18 07:58:24;;;;;;;10.60;5.30;;;;;;;24.22;100.00;98663.59;1763396;81;21270;-58
2022/09/18 08:00:55;;;;;;;8.27;4.60;;;;;;;24.02;100.00;98660.20;1763782;81;21511;-59
2022/09/18 08:03:24;;;;;;;9.10;5.53;;;;;;;23.97;100.00;98676.30;1763289;81;21042;-65
2022/09/18 08:05:56;;;;;;;10.60;4.53;;;;;;;23.83;100.00;98701.72;1751858;80;21136;-60
2022/09/18 08:08:24;;;;;;;9.33;5.30;;;;;;;23.78;100.00;98694.64;1745203;82;21327;-59
2022/09/18 08:10:56;;;;;;;9.33;4.70;;;;;;;23.76;100.00;98706.70;1727555;82;21762;-58
2022/09/18 08:13:26;;;;;;;8.00;5.13;;;;;;;23.94;100.00;98708.84;1761797;80;20918;-66
2022/09/18 08:15:58;;;;;;;8.90;5.13;;;;;;;24.06;100.00;98727.70;1774519;80;20949;-58
2022/09/18 08:18:28;;;;;;;10.30;5.30;;;;;;;24.23;100.00;98730.94;1772456;80;21395;-60
2022/09/18 08:21:10;;;;;;;8.03;4.30;;;;;;;24.36;100.00;98730.03;1776451;80;20866;-58
2022/09/18 08:23:45;;;;;;;9.97;5.20;;;;;;;24.37;100.00;98727.59;1776776;80;21099;-58
2022/09/18 08:26:13;;;;;;;9.47;5.23;;;;;;;24.48;100.00;98722.23;1777314;79;21053;-58
2022/09/18 08:28:42;;;;;;;10.07;4.80;;;;;;;24.50;100.00;98716.03;1777177;80;20871;-69
2022/09/18 08:31:10;;;;;;;8.00;4.70;;;;;;;24.64;100.00;98703.13;1777207;80;21470;-60
2022/09/18 08:33:38;;;;;;;6.73;4.20;;;;;;;24.83;100.00;98707.58;1777267;80;21026;-59
2022/09/18 08:36:06;;;;;;;6.60;4.10;;;;;;;25.04;100.00;98696.25;1777438;79;21325;-57
2022/09/18 08:38:35;;;;;;;8.00;3.87;;;;;;;25.23;100.00;98703.41;1777240;80;20990;-69
2022/09/18 08:41:46;;;;;;;7.17;4.03;;;;;;;25.51;100.00;98705.11;1770689;80;21470;-57
2022/09/18 08:44:23;;;;;;;9.28;4.20;;;;;;;25.68;100.00;98682.37;1694419;80;21030;-59
2022/09/18 08:46:58;;;;;;;7.73;4.10;;;;;;;25.95;100.00;98680.38;1777938;80;21457;-58
2022/09/18 08:49:40;;;;;;;7.62;4.58;;;;;;;26.19;100.00;98674.41;1777548;80;21187;-58
2022/09/18 08:52:27;;;;;;;7.53;4.72;;;;;;;26.41;100.00;98676.75;1776180;80;20831;-60
2022/09/18 08:55:07;;;;;;;9.18;4.87;;;;;;;26.50;100.00;98678.05;1776557;80;20965;-57
2022/09/18 08:58:04;;;;;;;10.73;4.23;;;;;;;26.74;100.00;98685.94;1775111;80;21032;-68
2022/09/18 09:00:42;;;;;;;9.10;4.60;;;;;;;27.04;100.00;98693.28;1777579;80;20977;-57
2022/09/18 09:03:25;;;;;;;8.45;4.20;;;;;;;27.15;100.00;98697.91;1776728;79;21130;-64
2022/09/18 09:05:59;;;;;;;8.73;5.03;;;;;;;27.30;100.00;98702.41;1777536;80;20976;-57
2022/09/18 09:08:46;;;;;;;8.75;4.65;;;;;;;27.36;100.00;98708.55;1777120;80;21538;-72
2022/09/18 09:11:50;;;;;;;12.28;4.78;;;;;;;27.61;100.00;98711.25;1777834;80;21049;-61
2022/09/18 09:14:38;;;;;;;11.45;4.58;;;;;;;27.64;100.00;98709.25;1777787;80;21248;-72
2022/09/18 09:17:18;;;;;;;7.70;4.60;;;;;;;27.70;100.00;98711.16;1773346;80;21749;-58
2022/09/18 09:19:55;;;;;;;7.42;4.72;;;;;;;28.02;100.00;98707.59;1776819;80;20958;-59
2022/09/18 09:23:04;;;;;;;8.53;4.42;;;;;;;28.50;100.00;98693.13;1776693;79;21512;-59
2022/09/18 09:25:43;;;;;;;7.78;4.42;;;;;;;29.00;100.00;98700.66;1777660;80;20946;-59
2022/09/18 09:28:25;;;;;;;9.33;4.25;;;;;;;29.11;100.00;98703.62;1756525;80;20962;-58
2022/09/18 09:31:12;;;;;;;10.90;3.92;;;;;;;29.16;100.00;98699.33;1662613;84;21291;-69
2022/09/18 09:34:06;;;;;;;6.78;3.62;;;;;;;29.06;100.00;98718.07;1634702;87;21075;-73
2022/09/18 09:36:48;;;;;;;6.80;3.50;;;;;;;29.03;100.00;98715.30;1674108;80;21030;-59
2022/09/18 09:39:38;;;;;;;7.22;3.70;;;;;;;28.92;100.00;98712.86;1746894;80;21044;-58
2022/09/18 09:42:11;;;;;;;6.92;3.52;;;;;;;29.01;100.00;98712.16;1746067;80;21045;-58
2022/09/18 09:44:46;;;;;;;8.35;3.35;;;;;;;29.21;100.00;98733.18;1777366;80;22257;-58
2022/09/18 09:47:30;;;;;;;8.03;3.27;;;;;;;29.50;100.00;98740.83;1777510;80;21010;-59
2022/09/18 09:50:41;;;;;;;5.55;2.95;;;;;;;29.50;100.00;98740.83;1776595;80;20961;-60
2022/09/18 09:53:11;;;;;;;6.08;3.42;;;;;;;29.61;100.00;98731.73;1777143;80;21594;-58
2022/09/18 09:55:52;;;;;;;6.17;3.33;;;;;;;29.83;100.00;98744.34;1776563;80;21088;-57
2022/09/18 09:58:55;;;;;;;8.75;3.22;;;;;;;29.90;100.00;98739.14;1776404;80;21384;-59
2022/09/18 10:01:43;;;;;;;6.75;3.72;;;;;;;30.08;100.00;98740.33;1777641;80;21045;-58
2022/09/18 10:04:45;;;;;;;10.55;3.65;;;;;;;30.35;100.00;98732.48;1777414;80;21767;-58
2022/09/18 10:07:29;;;;;;;10.18;3.10;;;;;;;30.52;100.00;98726.69;1773245;80;21006;-60
2022/09/18 10:10:14;;;;;;;8.90;2.95;;;;;;;30.54;100.00;98729.81;1740347;81;20946;-58
2022/09/18 10:12:52;;;;;;;8.13;3.12;;;;;;;30.49;100.00;98736.22;1769792;81;21263;-57
2022/09/18 10:15:37;;;;;;;5.75;3.22;;;;;;;30.67;100.00;98723.72;1769433;81;20974;-69
2022/09/18 10:18:15;;;;;;;6.08;2.47;;;;;;;30.95;100.00;98711.39;1767247;80;21394;-69
2022/09/18 10:20:43;;;;;;;6.03;2.95;;;;;;;31.25;100.00;98716.93;1769839;81;21309;-57
2022/09/18 10:23:21;;;;;;;8.45;3.50;;;;;;;31.40;100.00;98717.98;1770029;81;21038;-63
2022/09/18 10:25:51;;;;;;;5.45;2.42;;;;;;;31.58;100.00;98712.89;1769561;81;21305;-57
2022/09/18 10:28:23;;;;;;;5.37;2.60;;;;;;;31.74;99.97;98706.21;1769359;81;20923;-57
2022/09/18 10:31:02;;;;;;;9.75;3.20;;;;;;;31.75;95.63;98701.62;1741434;81;20989;-64
2022/09/18 10:33:38;;;;;;;8.15;3.83;;;;;;;31.71;88.09;98691.38;1769412;81;21033;-56
2022/09/18 10:36:32;;;;;;;7.42;3.35;;;;;;;31.60;92.68;98697.16;1769461;81;21064;-57
2022/09/18 10:39:16;;;;;;;6.75;2.35;;;;;;;31.60;92.87;98701.98;1746844;81;21524;-57
2022/09/18 10:41:44;;;;;;;7.67;3.65;;;;;;;31.78;85.65;98689.33;1767972;80;21754;-57
2022/09/18 10:44:21;;;;;;;7.10;2.77;;;;;;;31.68;92.32;98708.25;1769654;81;21069;-58
2022/09/18 10:47:11;;;;;;;5.65;2.87;;;;;;;31.94;93.69;98700.78;1769790;81;20951;-59
2022/09/18 10:50:13;;;;;;;6.75;2.52;;;;;;;31.89;90.95;98703.77;1768254;79;20943;-58
2022/09/18 10:52:46;;;;;;;6.42;2.72;;;;;;;32.01;86.80;98707.59;1769958;79;21346;-57
2022/09/18 10:55:20;;;;;;;7.83;2.77;;;;;;;32.10;89.17;98708.69;1764235;79;20961;-57
2022/09/18 10:57:57;;;;;;;8.65;2.58;;;;;;;32.27;80.46;98700.63;1768468;81;21030;-61
2022/09/18 11:00:32;;;;;;;6.47;2.65;;;;;;;32.27;83.83;98697.34;1770195;81;21022;-57
2022/09/18 11:03:36;;;;;;;8.55;3.42;;;;;;;32.30;88.42;98698.55;1770719;81;21855;-57
2022/09/18 11:06:10;;;;;;;6.55;3.12;;;;;;;32.25;82.66;98697.53;1769819;81;21148;-59
2022/09/18 11:08:42;;;;;;;9.00;3.25;;;;;;;32.08;89.72;98706.34;1761832;80;20981;-57
2022/09/18 11:11:35;;;;;;;7.25;3.10;;;;;;;32.08;91.31;98697.48;1813995;78;20956;-60
2022/09/18 11:14:08;;;;;;;8.48;3.50;;;;;;;32.12;91.60;98705.82;1814257;78;21112;-58
2022/09/18 11:16:42;;;;;;;7.00;3.30;;;;;;;31.95;89.76;98703.67;1812176;78;20958;-57
2022/09/18 11:19:39;;;;;;;9.23;3.60;;;;;;;31.85;89.02;98696.97;1781595;78;21135;-56
2022/09/18 11:22:30;;;;;;;9.23;3.72;;;;;;;31.52;94.52;98693.58;1813819;78;20859;-58
2022/09/18 11:25:25;;;;;;;6.17;3.55;;;;;;;31.76;93.50;98697.02;1815414;78;20978;-57
2022/09/18 11:27:56;;;;;;;9.05;3.33;;;;;;;31.84;97.83;98691.36;1815882;78;20938;-57
2022/09/18 11:30:26;;;;;;;6.67;2.98;;;;;;;31.73;99.31;98683.11;1816295;78;20844;-57
2022/09/18 11:33:22;;;;;;;5.85;3.35;;;;;;;31.80;99.96;98693.80;1782359;78;22177;-57
2022/09/18 11:36:00;;;;;;;8.33;3.30;;;;;;;32.01;100.00;98691.99;1793855;79;21112;-56
2022/09/18 11:38:28;;;;;;;7.90;3.45;;;;;;;32.00;99.72;98697.95;1805849;78;21076;-67
2022/09/18 11:40:57;;;;;;;8.28;3.17;;;;;;;31.99;95.34;98692.37;1782615;78;21100;-57
2022/09/18 11:43:35;;;;;;;10.43;4.10;;;;;;;31.87;96.25;98693.94;1814499;78;21213;-56
2022/09/18 11:46:14;;;;;;;11.20;4.28;;;;;;;31.66;100.00;98699.17;1815335;78;21585;-61
2022/09/18 11:49:02;;;;;;;6.83;3.42;;;;;;;31.41;100.00;98683.20;1815261;77;21480;-57
2022/09/18 11:51:53;;;;;;;7.75;3.65;;;;;;;31.15;100.00;98687.36;1815289;78;21433;-57
2022/09/18 11:54:45;;;;;;;7.12;3.27;;;;;;;31.12;100.00;98681.34;1815789;78;21040;-57